Time;durP1;ratioP1;P1;durP2;ratioP2;P2;SDS_P1;SDS_P2;PMS_P1;PMS_P2;Temp;Humidity;BMP_temperature;BMP_pressure;BME280_temperature;BME280_humidity;BME280_pressure;Samples;Min_cycle;Max_cycle;Signal;HPM_P1;HPM_P2
2022/06/29 00:00:13;;;;;;;4.60;3.80;;;20.20;61.70;;;;;;5096873;28;20024;-71
2022/06/29 00:02:40;;;;;;;4.82;3.83;;;20.10;61.30;;;;;;5114539;28;20075;-71
2022/06/29 00:05:07;;;;;;;6.75;4.05;;;20.10;61.40;;;;;;5096441;28;20024;-71
2022/06/29 00:07:33;;;;;;;5.45;4.10;;;20.10;61.40;;;;;;5114441;28;20032;-71
2022/06/29 00:09:59;;;;;;;4.57;4.03;;;20.10;61.50;;;;;;5114396;28;20039;-71
2022/06/29 00:12:25;;;;;;;5.32;4.20;;;20.10;61.70;;;;;;5114217;28;20020;-71
2022/06/29 00:14:50;;;;;;;4.20;3.78;;;20.00;61.70;;;;;;5114307;28;20020;-71
2022/06/29 00:17:16;;;;;;;5.47;4.32;;;19.90;62.10;;;;;;5114252;28;20028;-71
2022/06/29 00:19:41;;;;;;;5.70;4.65;;;19.90;62.10;;;;;;5114169;28;20039;-71
2022/06/29 00:22:09;;;;;;;5.80;4.10;;;19.90;62.10;;;;;;5114179;28;20024;-71
2022/06/29 00:24:34;;;;;;;6.05;4.50;;;19.90;61.70;;;;;;5114144;28;20051;-71
2022/06/29 00:27:01;;;;;;;6.15;4.30;;;19.90;61.60;;;;;;5114059;28;20024;-71
2022/06/29 00:29:27;;;;;;;7.80;4.40;;;19.90;61.90;;;;;;5113758;28;20052;-71
2022/06/29 00:31:53;;;;;;;5.65;4.80;;;19.80;62.70;;;;;;5113924;28;20077;-71
2022/06/29 00:34:19;;;;;;;6.20;4.68;;;19.70;62.30;;;;;;5096052;28;20024;-71
2022/06/29 00:36:45;;;;;;;6.38;5.28;;;19.70;62.70;;;;;;5113712;28;20036;-71
2022/06/29 00:39:11;;;;;;;5.15;4.50;;;19.70;62.80;;;;;;5113875;28;20087;-71
2022/06/29 00:41:38;;;;;;;7.28;4.65;;;19.60;62.80;;;;;;5113829;28;20020;-71
2022/06/29 00:44:04;;;;;;;5.00;4.40;;;19.50;62.90;;;;;;5113795;28;20024;-71
2022/06/29 00:46:29;;;;;;;6.38;5.05;;;19.50;63.20;;;;;;5113826;28;20027;-71
2022/06/29 00:48:55;;;;;;;7.45;5.00;;;19.50;63.30;;;;;;5113709;28;20032;-71
2022/06/29 00:51:21;;;;;;;5.75;4.57;;;19.60;63.30;;;;;;5113573;28;20028;-71
2022/06/29 00:53:50;;;;;;;6.22;5.55;;;19.60;62.60;;;;;;5113656;28;20031;-71
2022/06/29 00:56:19;;;;;;;5.38;4.72;;;19.60;62.60;;;;;;5113601;28;20022;-71
2022/06/29 00:58:46;;;;;;;6.97;5.25;;;19.70;62.90;;;;;;5113720;28;20024;-71
2022/06/29 01:01:14;;;;;;;6.00;5.20;;;19.60;62.70;;;;;;5113572;28;20039;-71
2022/06/29 01:03:39;;;;;;;6.95;5.65;;;19.40;62.90;;;;;;5113535;28;20034;-71
2022/06/29 01:06:06;;;;;;;6.38;5.13;;;19.50;63.50;;;;;;5095596;28;20092;-71
2022/06/29 01:08:32;;;;;;;6.63;5.70;;;19.40;63.60;;;;;;5113489;28;20032;-71
2022/06/29 01:10:58;;;;;;;6.15;5.53;;;19.50;63.70;;;;;;5095521;28;20027;-71
2022/06/29 01:13:23;;;;;;;6.35;5.75;;;19.50;63.70;;;;;;5113418;28;20079;-71
2022/06/29 01:15:49;;;;;;;8.73;6.13;;;19.60;63.20;;;;;;5113378;28;20059;-71
2022/06/29 01:18:14;;;;;;;5.70;5.18;;;19.60;63.00;;;;;;5113343;28;20024;-71
2022/06/29 01:20:40;;;;;;;6.45;5.80;;;19.50;62.90;;;;;;5113303;28;20024;-71
2022/06/29 01:23:06;;;;;;;10.05;6.13;;;19.40;63.30;;;;;;5113302;28;20024;-71
2022/06/29 01:25:31;;;;;;;7.55;6.82;;;19.40;63.50;;;;;;5113298;28;20080;-71
2022/06/29 01:27:58;;;;;;;6.78;6.10;;;19.30;63.60;;;;;;5113208;28;20510;-71
2022/06/29 01:30:24;;;;;;;7.80;7.00;;;19.30;63.80;;;;;;5113047;28;20044;-71
2022/06/29 01:32:50;;;;;;;7.35;6.60;;;19.30;63.70;;;;;;5113257;28;20020;-71
2022/06/29 01:35:16;;;;;;;7.85;7.05;;;19.30;63.70;;;;;;5113185;28;20032;-71
2022/06/29 01:37:43;;;;;;;7.72;7.03;;;19.20;64.00;;;;;;5113195;28;20023;-71
2022/06/29 01:40:10;;;;;;;7.68;6.80;;;19.10;64.10;;;;;;5113082;28;20016;-71
2022/06/29 01:42:36;;;;;;;8.80;7.20;;;19.10;64.80;;;;;;5113132;28;20028;-71
2022/06/29 01:45:03;;;;;;;8.95;6.72;;;19.10;64.80;;;;;;5113104;28;20038;-71
2022/06/29 01:47:28;;;;;;;7.32;6.57;;;19.20;64.50;;;;;;5095241;28;20096;-71
2022/06/29 01:49:54;;;;;;;7.13;6.50;;;19.20;64.40;;;;;;5116337;28;20062;-71
2022/06/29 01:52:19;;;;;;;9.45;6.63;;;19.20;64.00;;;;;;5117012;28;20046;-71
2022/06/29 01:54:45;;;;;;;7.63;6.72;;;19.10;64.10;;;;;;5099130;28;20032;-71
2022/06/29 01:57:11;;;;;;;8.25;6.40;;;19.10;64.60;;;;;;5116967;28;20039;-71
2022/06/29 01:59:36;;;;;;;7.07;6.38;;;19.00;64.50;;;;;;5116905;28;20028;-71
2022/06/29 02:02:02;;;;;;;8.38;7.15;;;18.90;65.00;;;;;;5116839;28;20028;-71
2022/06/29 02:04:28;;;;;;;8.48;7.60;;;18.90;64.90;;;;;;5116816;28;20035;-71
2022/06/29 02:06:53;;;;;;;8.25;7.45;;;18.80;65.00;;;;;;5116875;28;20032;-71
2022/06/29 02:09:19;;;;;;;8.85;7.55;;;18.80;65.20;;;;;;5116722;28;20050;-71
2022/06/29 02:11:45;;;;;;;7.63;6.97;;;18.90;65.00;;;;;;5116748;28;20032;-71
2022/06/29 02:14:10;;;;;;;9.20;7.38;;;19.00;64.80;;;;;;5116614;28;20039;-71
2022/06/29 02:16:37;;;;;;;7.88;7.07;;;19.10;64.60;;;;;;5116748;28;20032;-71
2022/06/29 02:19:03;;;;;;;8.98;8.07;;;19.10;64.70;;;;;;5116573;28;20091;-71
2022/06/29 02:21:29;;;;;;;8.70;7.90;;;19.10;64.60;;;;;;5116456;28;20024;-71
2022/06/29 02:23:54;;;;;;;9.35;8.45;;;19.10;64.60;;;;;;5116413;28;20043;-71
2022/06/29 02:26:20;;;;;;;9.75;8.52;;;19.00;64.70;;;;;;5116410;28;20032;-71
2022/06/29 02:28:45;;;;;;;10.60;8.20;;;19.00;64.40;;;;;;5116076;28;20050;-71
2022/06/29 02:36:40;;;;;;;9.82;8.80;;;18.90;65.60;;;;;;5116488;28;20088;-71
2022/06/29 02:39:05;;;;;;;10.52;9.25;;;18.90;65.70;;;;;;5116136;28;20024;-71
2022/06/29 02:41:31;;;;;;;10.30;9.20;;;18.80;65.80;;;;;;5116124;28;20040;-71
2022/06/29 02:43:58;;;;;;;10.95;8.88;;;18.90;66.10;;;;;;5116189;28;20028;-71
2022/06/29 02:46:23;;;;;;;9.57;8.63;;;19.00;65.50;;;;;;5115994;28;20016;-71
2022/06/29 02:48:49;;;;;;;10.25;8.90;;;19.00;65.30;;;;;;5115947;28;20035;-71
2022/06/29 02:51:14;;;;;;;10.00;8.70;;;18.90;64.90;;;;;;5097939;28;20044;-71
2022/06/29 02:53:40;;;;;;;10.57;8.77;;;18.80;65.10;;;;;;5115852;28;20032;-71
2022/06/29 02:56:06;;;;;;;11.32;8.98;;;18.70;65.50;;;;;;5115845;28;20085;-71
2022/06/29 02:58:31;;;;;;;9.32;8.43;;;18.70;65.70;;;;;;5115788;28;20035;-71
2022/06/29 03:00:57;;;;;;;11.02;9.02;;;18.60;66.00;;;;;;5115701;28;20032;-71
2022/06/29 03:03:23;;;;;;;10.18;9.18;;;18.60;66.40;;;;;;5115723;28;20032;-71
2022/06/29 03:05:49;;;;;;;9.70;8.68;;;18.60;66.80;;;;;;5115677;28;20028;-71
2022/06/29 03:08:14;;;;;;;9.98;8.98;;;18.60;66.70;;;;;;5115575;28;20043;-71
2022/06/29 03:10:40;;;;;;;10.23;9.00;;;18.60;67.50;;;;;;5115462;28;20028;-71
2022/06/29 03:13:05;;;;;;;11.32;9.10;;;18.50;66.50;;;;;;5115502;28;20032;-71
2022/06/29 03:15:31;;;;;;;10.07;9.02;;;18.50;66.80;;;;;;5115461;28;20027;-71
2022/06/29 03:17:56;;;;;;;9.98;8.98;;;18.50;67.10;;;;;;5097544;28;20414;-71
2022/06/29 03:20:23;;;;;;;10.00;8.98;;;18.60;67.10;;;;;;5115361;28;20050;-71
2022/06/29 03:22:48;;;;;;;9.45;8.63;;;18.50;67.40;;;;;;5115314;28;20430;-71
2022/06/29 03:25:15;;;;;;;9.52;8.57;;;18.50;67.50;;;;;;5115369;28;20032;-71
2022/06/29 03:27:42;;;;;;;10.18;9.18;;;18.50;67.30;;;;;;5115202;28;20032;-71
2022/06/29 03:30:08;;;;;;;10.43;9.43;;;18.50;67.70;;;;;;5097010;28;20121;-71
2022/06/29 03:32:34;;;;;;;10.23;9.23;;;18.50;66.80;;;;;;5115067;28;20024;-71
2022/06/29 03:35:00;;;;;;;11.35;9.57;;;18.50;66.80;;;;;;5115069;28;20047;-71
2022/06/29 03:37:25;;;;;;;10.10;9.02;;;18.40;67.30;;;;;;5115042;28;20071;-71
2022/06/29 03:39:51;;;;;;;10.65;9.75;;;18.50;67.40;;;;;;5115110;28;20032;-71
2022/06/29 03:42:16;;;;;;;10.45;9.27;;;18.50;66.90;;;;;;5114930;28;20040;-71
2022/06/29 03:44:42;;;;;;;10.65;9.57;;;18.50;66.80;;;;;;5096944;28;20054;-71
2022/06/29 03:47:08;;;;;;;10.60;9.55;;;18.60;66.90;;;;;;5114861;28;20040;-67
2022/06/29 03:49:35;;;;;;;11.07;9.70;;;18.50;67.00;;;;;;5114939;28;20065;-67
2022/06/29 03:52:01;;;;;;;11.38;9.73;;;18.50;67.30;;;;;;5114723;28;20035;-68
2022/06/29 03:54:27;;;;;;;10.70;9.70;;;18.50;67.40;;;;;;5114685;28;20036;-68
2022/06/29 03:56:52;;;;;;;13.18;9.85;;;18.50;67.60;;;;;;5114637;28;20025;-68
2022/06/29 03:59:18;;;;;;;11.00;9.80;;;18.40;67.80;;;;;;5114571;28;20028;-67
2022/06/29 04:01:46;;;;;;;10.73;9.57;;;18.40;67.80;;;;;;5114558;28;20038;-67
2022/06/29 04:04:12;;;;;;;10.93;9.90;;;18.40;67.50;;;;;;5114502;28;20052;-67
2022/06/29 04:06:38;;;;;;;11.63;9.95;;;18.30;67.40;;;;;;5114491;28;20031;-67
2022/06/29 04:09:03;;;;;;;11.70;10.23;;;18.30;67.40;;;;;;5114427;28;20024;-67
2022/06/29 04:14:13;;;;;;;13.57;10.75;;;18.30;67.40;;;;;;5114597;28;20078;-68
2022/06/29 04:16:39;;;;;;;11.70;10.52;;;18.30;67.70;;;;;;5114237;28;20024;-67
2022/06/29 04:19:04;;;;;;;12.02;10.88;;;18.30;67.80;;;;;;5114236;28;20028;-67
2022/06/29 04:21:30;;;;;;;11.50;10.40;;;18.30;67.70;;;;;;5114184;28;20024;-67
2022/06/29 04:23:55;;;;;;;11.85;10.23;;;18.30;68.00;;;;;;5114139;28;20039;-67
2022/06/29 04:26:21;;;;;;;11.70;10.60;;;18.40;67.90;;;;;;5114134;28;20035;-68
2022/06/29 04:28:47;;;;;;;11.20;10.20;;;18.40;67.80;;;;;;5113806;28;20032;-68
2022/06/29 04:31:12;;;;;;;12.73;10.23;;;18.40;67.90;;;;;;5114009;28;20051;-68
2022/06/29 04:33:38;;;;;;;11.82;10.20;;;18.40;68.00;;;;;;5113976;28;20059;-67
2022/06/29 04:36:03;;;;;;;11.77;10.25;;;18.40;67.80;;;;;;5096043;28;20036;-68
2022/06/29 04:38:29;;;;;;;11.25;10.15;;;18.50;67.70;;;;;;5113934;28;20048;-67
2022/06/29 04:40:55;;;;;;;12.63;10.40;;;18.40;67.90;;;;;;5113838;28;20032;-67
2022/06/29 04:43:20;;;;;;;13.25;10.20;;;18.40;68.00;;;;;;5113858;28;20031;-67
2022/06/29 04:48:31;;;;;;;11.45;10.35;;;18.30;68.60;;;;;;5113918;28;20043;-67
2022/06/29 04:50:56;;;;;;;12.02;10.75;;;18.40;68.80;;;;;;5113625;28;20032;-67
2022/06/29 04:53:22;;;;;;;11.43;10.15;;;18.50;68.80;;;;;;5113691;28;20029;-68
2022/06/29 04:55:48;;;;;;;12.10;10.35;;;18.40;68.30;;;;;;5113742;28;20089;-67
2022/06/29 04:58:13;;;;;;;11.05;9.95;;;18.40;68.20;;;;;;5113629;28;20031;-67
2022/06/29 05:00:39;;;;;;;11.65;10.60;;;18.40;69.20;;;;;;5113488;28;20035;-67
2022/06/29 05:03:04;;;;;;;11.75;10.65;;;18.50;68.40;;;;;;5113541;28;20028;-68
2022/06/29 05:05:30;;;;;;;12.05;10.70;;;18.50;68.60;;;;;;5113447;28;20028;-68
2022/06/29 05:07:56;;;;;;;14.02;12.63;;;18.40;68.60;;;;;;5113511;28;20024;-68
2022/06/29 05:10:21;;;;;;;13.35;11.95;;;18.40;68.90;;;;;;5113464;28;20032;-68
2022/06/29 05:12:47;;;;;;;12.75;11.35;;;18.50;69.20;;;;;;5113360;28;20036;-67
2022/06/29 05:15:12;;;;;;;13.55;12.13;;;18.50;69.20;;;;;;5113394;28;20083;-67
2022/06/29 05:17:39;;;;;;;12.98;11.40;;;18.50;69.50;;;;;;5113378;28;20028;-67
2022/06/29 05:20:07;;;;;;;15.32;11.25;;;18.40;69.20;;;;;;5113389;28;20088;-68
2022/06/29 05:22:33;;;;;;;12.25;11.05;;;18.50;69.30;;;;;;5113382;28;20031;-68
2022/06/29 05:24:59;;;;;;;12.00;10.80;;;18.50;69.60;;;;;;5116922;28;20032;-68
2022/06/29 05:27:24;;;;;;;13.63;10.63;;;18.50;69.70;;;;;;5117502;28;20028;-68
2022/06/29 05:29:50;;;;;;;12.00;10.80;;;18.50;69.50;;;;;;5117288;28;20062;-67
2022/06/29 05:32:16;;;;;;;12.15;10.32;;;18.60;69.50;;;;;;5117336;28;20059;-67
2022/06/29 05:34:41;;;;;;;11.57;9.88;;;18.60;69.60;;;;;;5117436;28;20043;-68
2022/06/29 05:37:07;;;;;;;12.20;9.80;;;18.60;69.50;;;;;;5117369;28;20425;-68
2022/06/29 05:39:32;;;;;;;11.32;9.90;;;18.60;69.20;;;;;;5117313;28;20020;-67
2022/06/29 05:41:58;;;;;;;10.60;9.55;;;18.60;69.60;;;;;;5117274;28;20028;-68
2022/06/29 05:44:24;;;;;;;9.95;8.90;;;18.70;69.80;;;;;;5099249;28;20044;-68
2022/06/29 05:46:49;;;;;;;10.35;8.20;;;18.70;69.80;;;;;;5117217;28;20043;-67
2022/06/29 05:49:15;;;;;;;9.27;8.27;;;18.80;69.40;;;;;;5117049;28;20020;-67
2022/06/29 05:51:40;;;;;;;9.50;8.60;;;18.80;69.60;;;;;;5117036;28;20402;-68
2022/06/29 05:54:07;;;;;;;10.63;8.50;;;18.90;69.60;;;;;;5117033;28;20024;-68
2022/06/29 05:56:33;;;;;;;10.27;8.35;;;18.90;69.50;;;;;;5117018;28;20016;-68
2022/06/29 05:58:58;;;;;;;10.88;8.43;;;19.00;69.20;;;;;;5116980;28;20024;-67
2022/06/29 06:01:31;;;;;;;9.60;8.70;;;19.00;69.30;;;;;;5116262;28;20107;-68
2022/06/29 06:04:00;;;;;;;13.05;8.77;;;19.10;69.60;;;;;;5115823;28;20028;-68
2022/06/29 06:06:26;;;;;;;11.77;8.40;;;19.10;69.60;;;;;;5116387;28;20036;-69
2022/06/29 06:08:51;;;;;;;11.68;8.57;;;19.20;69.60;;;;;;5117990;28;20039;-68
2022/06/29 06:11:17;;;;;;;10.93;8.13;;;19.30;69.80;;;;;;5117024;28;20039;-68
2022/06/29 06:13:42;;;;;;;10.35;7.90;;;19.40;69.70;;;;;;5117289;28;20025;-69
2022/06/29 06:16:09;;;;;;;10.10;7.72;;;19.50;69.20;;;;;;5116727;28;20050;-69
2022/06/29 06:18:35;;;;;;;11.70;8.15;;;19.50;68.70;;;;;;5116604;28;20513;-69
2022/06/29 06:21:03;;;;;;;10.82;7.88;;;19.60;68.60;;;;;;5116595;28;20031;-69
2022/06/29 06:23:29;;;;;;;8.63;7.65;;;19.70;68.50;;;;;;5098345;28;20032;-70
2022/06/29 06:25:54;;;;;;;11.23;8.00;;;19.70;68.30;;;;;;5115326;28;20081;-69
2022/06/29 06:28:20;;;;;;;9.27;8.02;;;19.70;67.60;;;;;;5097949;28;20024;-70
2022/06/29 06:30:45;;;;;;;9.43;8.00;;;19.80;67.80;;;;;;5115897;28;20084;-71
2022/06/29 06:33:11;;;;;;;9.93;7.78;;;19.90;67.80;;;;;;5116376;28;20028;-70
2022/06/29 06:35:37;;;;;;;10.95;8.55;;;19.90;67.30;;;;;;5115831;28;20032;-70
2022/06/29 06:38:03;;;;;;;9.38;8.43;;;19.90;67.50;;;;;;5116211;28;20047;-70
2022/06/29 06:43:13;;;;;;;12.10;8.35;;;20.00;67.70;;;;;;5116384;28;20122;-70
2022/06/29 06:45:38;;;;;;;9.65;8.38;;;20.00;67.60;;;;;;5116113;28;20394;-71
2022/06/29 06:48:04;;;;;;;11.38;8.77;;;20.10;67.70;;;;;;5116051;28;20035;-71
2022/06/29 06:50:30;;;;;;;10.73;8.35;;;20.20;67.50;;;;;;5116001;28;20028;-71
2022/06/29 06:52:56;;;;;;;10.05;8.35;;;20.30;67.40;;;;;;5115868;28;20047;-71
2022/06/29 06:55:21;;;;;;;9.38;7.88;;;20.30;66.70;;;;;;5116032;28;20516;-71
2022/06/29 06:57:47;;;;;;;10.05;8.25;;;20.40;66.30;;;;;;5115882;28;20030;-71
2022/06/29 07:00:13;;;;;;;9.15;7.50;;;20.40;66.40;;;;;;5115794;28;20067;-71
2022/06/29 07:02:51;;;;;;;10.77;8.23;;;20.50;66.40;;;;;;5097959;28;20095;-64
2022/06/29 07:05:18;;;;;;;10.23;8.68;;;20.60;66.70;;;;;;5076928;28;20128;-63
2022/06/29 07:07:43;;;;;;;9.88;8.57;;;20.60;66.30;;;;;;5115645;28;20020;-63
2022/06/29 07:10:09;;;;;;;10.25;8.45;;;20.70;65.80;;;;;;5115636;28;20389;-63
2022/06/29 07:12:35;;;;;;;10.00;8.70;;;20.70;66.10;;;;;;5115534;28;20027;-64
2022/06/29 07:15:00;;;;;;;12.77;8.65;;;20.70;66.70;;;;;;5097747;28;20050;-64
2022/06/29 07:17:26;;;;;;;10.05;8.32;;;20.80;66.30;;;;;;5115579;28;20025;-64
2022/06/29 07:19:51;;;;;;;13.55;8.98;;;20.80;66.00;;;;;;5115301;28;20175;-64
2022/06/29 07:22:17;;;;;;;10.60;8.65;;;20.90;65.90;;;;;;5115507;28;20034;-64
2022/06/29 07:24:43;;;;;;;13.13;9.52;;;20.90;66.50;;;;;;5115437;28;20076;-64
2022/06/29 07:27:09;;;;;;;13.60;8.75;;;21.00;66.50;;;;;;5115280;28;20121;-64
2022/06/29 07:29:34;;;;;;;13.98;9.00;;;21.10;64.10;;;;;;5115030;28;20056;-64
2022/06/29 07:32:00;;;;;;;13.00;8.77;;;21.10;64.70;;;;;;5115272;28;20028;-64
2022/06/29 07:34:29;;;;;;;10.40;8.50;;;21.10;65.30;;;;;;5115141;28;20048;-64
2022/06/29 07:36:54;;;;;;;15.10;8.73;;;21.20;65.10;;;;;;5115044;28;20020;-64
2022/06/29 07:39:20;;;;;;;10.23;8.60;;;21.20;66.20;;;;;;5115054;28;20086;-64
2022/06/29 07:41:45;;;;;;;11.25;9.25;;;21.40;66.20;;;;;;5114970;28;20043;-64
2022/06/29 07:44:11;;;;;;;12.18;9.15;;;21.50;66.10;;;;;;5114927;28;20024;-64
2022/06/29 07:46:44;;;;;;;10.85;9.02;;;21.50;65.40;;;;;;5114160;28;20032;-64
2022/06/29 07:49:10;;;;;;;14.43;8.63;;;21.60;65.30;;;;;;5097078;28;20043;-64
2022/06/29 07:51:35;;;;;;;10.65;7.97;;;21.60;64.20;;;;;;5114705;28;20040;-66
2022/06/29 07:54:01;;;;;;;10.15;7.78;;;21.80;64.60;;;;;;5114862;28;20062;-66
2022/06/29 07:56:27;;;;;;;9.15;7.88;;;21.80;63.50;;;;;;5114685;28;20028;-66
2022/06/29 07:58:56;;;;;;;12.80;9.07;;;21.90;64.50;;;;;;5114550;28;20039;-68
2022/06/29 08:01:21;;;;;;;11.68;8.85;;;22.00;63.10;;;;;;5114615;28;20109;-66
2022/06/29 08:03:47;;;;;;;12.93;9.15;;;22.00;62.80;;;;;;5114512;28;20035;-66
2022/06/29 08:06:13;;;;;;;10.65;8.32;;;22.00;63.60;;;;;;5114495;28;20028;-67
2022/06/29 08:08:38;;;;;;;7.82;6.88;;;22.10;63.40;;;;;;5114479;28;20032;-66
2022/06/29 08:11:06;;;;;;;8.90;6.60;;;22.10;61.70;;;;;;5114367;28;20043;-66
2022/06/29 08:13:32;;;;;;;10.32;6.90;;;22.20;62.00;;;;;;5114360;28;20047;-65
2022/06/29 08:15:57;;;;;;;11.50;7.07;;;22.30;61.00;;;;;;5114348;28;20028;-66
2022/06/29 08:18:23;;;;;;;13.63;9.23;;;22.40;61.30;;;;;;5114307;28;20024;-66
2022/06/29 08:20:48;;;;;;;9.63;7.20;;;22.40;61.60;;;;;;5114311;28;20020;-66
2022/06/29 08:23:14;;;;;;;9.13;7.00;;;22.60;62.20;;;;;;5114230;28;20111;-66
2022/06/29 08:25:40;;;;;;;8.98;7.40;;;22.60;60.90;;;;;;5114151;28;20050;-66
2022/06/29 08:28:06;;;;;;;9.27;7.93;;;22.70;61.40;;;;;;5114207;28;20032;-66
2022/06/29 08:30:32;;;;;;;10.45;7.85;;;22.80;62.20;;;;;;5114012;28;20044;-67
2022/06/29 08:32:57;;;;;;;9.63;7.10;;;22.90;61.30;;;;;;5095939;28;20028;-66
2022/06/29 08:35:23;;;;;;;11.07;7.18;;;23.00;59.90;;;;;;5114027;28;20098;-66
2022/06/29 08:37:50;;;;;;;9.68;6.97;;;23.00;59.30;;;;;;5114005;28;20052;-66
2022/06/29 08:40:17;;;;;;;11.77;7.75;;;23.10;61.20;;;;;;5114025;28;20047;-66
2022/06/29 08:42:45;;;;;;;9.02;7.35;;;23.10;61.10;;;;;;5113895;28;20032;-66
2022/06/29 08:45:12;;;;;;;8.02;7.15;;;23.20;61.50;;;;;;5113880;28;20016;-66
2022/06/29 08:47:51;;;;;;;8.45;7.57;;;23.30;61.20;;;;;;5113855;28;20107;-67
2022/06/29 08:50:16;;;;;;;10.52;7.95;;;23.40;60.50;;;;;;5096539;28;20028;-64
2022/06/29 08:52:44;;;;;;;9.07;7.90;;;23.50;60.50;;;;;;5113644;28;20024;-64
2022/06/29 08:55:25;;;;;;;10.55;7.30;;;23.60;60.20;;;;;;5079070;28;20028;-66
2022/06/29 08:58:22;;;;;;;11.40;7.50;;;23.60;58.30;;;;;;5113750;28;20046;-66
2022/06/29 09:00:56;;;;;;;9.05;7.38;;;23.70;57.90;;;;;;5095822;28;20024;-66
2022/06/29 09:03:23;;;;;;;224.35;141.38;;;23.90;59.10;;;;;;5079509;28;20071;-65
2022/06/29 09:05:57;;;;;;;14.00;10.50;;;24.00;60.00;;;;;;5113791;28;20035;-66
2022/06/29 09:08:23;;;;;;;12.40;8.48;;;24.10;56.40;;;;;;5113585;28;20044;-65
2022/06/29 09:10:49;;;;;;;12.70;8.35;;;24.10;57.90;;;;;;5113379;28;20027;-66
2022/06/29 09:13:22;;;;;;;8.15;7.35;;;24.10;58.30;;;;;;5113471;28;20048;-66
2022/06/29 09:15:57;;;;;;;9.18;7.40;;;24.20;57.40;;;;;;5113398;28;20040;-66
2022/06/29 09:18:24;;;;;;;11.85;7.47;;;24.20;58.30;;;;;;5095616;28;20028;-66
2022/06/29 09:20:54;;;;;;;9.80;7.90;;;24.30;58.60;;;;;;5113366;28;20021;-66
2022/06/29 09:23:20;;;;;;;10.70;7.70;;;24.30;56.80;;;;;;5113508;28;20048;-66
2022/06/29 09:25:46;;;;;;;9.30;7.00;;;24.30;58.70;;;;;;5113286;28;20024;-66
2022/06/29 09:28:25;;;;;;;10.07;6.47;;;24.40;60.10;;;;;;5113272;28;20048;-66
2022/06/29 09:30:56;;;;;;;9.50;6.40;;;24.50;59.10;;;;;;5113138;28;20060;-66
2022/06/29 09:33:23;;;;;;;9.60;6.75;;;24.60;58.90;;;;;;5113053;28;20024;-68
2022/06/29 09:36:07;;;;;;;9.35;7.00;;;24.70;58.80;;;;;;5095492;28;20030;-67
2022/06/29 09:38:33;;;;;;;9.65;6.20;;;24.60;58.50;;;;;;5111953;28;20050;-68
2022/06/29 09:41:03;;;;;;;7.25;6.35;;;24.50;57.40;;;;;;5111470;28;20088;-68
2022/06/29 09:43:30;;;;;;;8.73;6.35;;;24.50;56.30;;;;;;5111864;28;20020;-66
2022/06/29 09:45:56;;;;;;;10.73;7.00;;;24.60;56.70;;;;;;5113122;28;20020;-66
2022/06/29 09:48:33;;;;;;;7.95;6.57;;;24.60;56.90;;;;;;5113185;28;20055;-67
2022/06/29 09:51:00;;;;;;;8.07;6.40;;;24.60;56.60;;;;;;5112893;28;20024;-67
2022/06/29 09:53:39;;;;;;;9.40;6.57;;;24.70;55.70;;;;;;5111061;28;20030;-67
2022/06/29 09:56:07;;;;;;;10.95;6.40;;;24.60;55.10;;;;;;5111041;28;20031;-67
2022/06/29 09:58:46;;;;;;;10.20;6.60;;;24.60;53.60;;;;;;5111042;28;20028;-69
2022/06/29 10:04:01;;;;;;;12.82;7.38;;;24.50;53.70;;;;;;5098220;28;20065;-66
2022/06/29 10:06:28;;;;;;;10.40;7.47;;;24.50;54.30;;;;;;5095065;28;20148;-66
2022/06/29 10:08:55;;;;;;;11.32;7.07;;;24.50;55.70;;;;;;5113033;28;20087;-66
2022/06/29 10:14:41;;;;;;;10.00;7.22;;;24.80;55.40;;;;;;5116749;28;20098;-66
2022/06/29 10:17:32;;;;;;;8.38;7.03;;;24.90;54.90;;;;;;5116615;28;20028;-66
2022/06/29 10:20:19;;;;;;;13.27;6.70;;;24.90;56.60;;;;;;5116777;28;20012;-66
2022/06/29 10:22:44;;;;;;;9.07;7.00;;;25.10;57.80;;;;;;5116584;28;20125;-66
2022/06/29 10:25:12;;;;;;;7.55;6.55;;;25.20;57.00;;;;;;5116475;28;20032;-66
2022/06/29 10:27:38;;;;;;;9.32;6.05;;;25.40;58.10;;;;;;5116429;28;20021;-66
2022/06/29 10:30:24;;;;;;;10.82;6.70;;;25.50;57.10;;;;;;5116149;28;20047;-66
2022/06/29 10:32:50;;;;;;;8.93;6.50;;;25.60;52.40;;;;;;5116297;28;20032;-66
2022/06/29 10:35:16;;;;;;;8.27;5.20;;;25.50;54.60;;;;;;5116310;28;20061;-67
2022/06/29 10:37:53;;;;;;;9.35;5.32;;;25.60;51.40;;;;;;5116296;28;20118;-66
2022/06/29 10:40:22;;;;;;;6.43;4.00;;;25.60;50.80;;;;;;5116277;28;20024;-66
2022/06/29 10:45:38;;;;;;;5.10;3.72;;;25.70;50.50;;;;;;5116330;28;20055;-66
2022/06/29 10:48:07;;;;;;;6.65;3.47;;;25.80;50.60;;;;;;5116079;28;20032;-66
2022/06/29 10:50:38;;;;;;;6.90;4.00;;;25.80;46.70;;;;;;5116005;28;20084;-66
2022/06/29 10:53:06;;;;;;;6.35;4.80;;;25.90;48.70;;;;;;5097985;28;20061;-66
2022/06/29 10:55:34;;;;;;;6.43;3.30;;;25.90;50.10;;;;;;5115986;28;20083;-66
2022/06/29 10:58:01;;;;;;;6.03;3.92;;;25.90;46.60;;;;;;5115871;28;20390;-66
2022/06/29 11:00:28;;;;;;;4.68;3.58;;;25.90;48.00;;;;;;5115970;28;20035;-66
2022/06/29 11:02:54;;;;;;;5.82;2.90;;;25.90;48.80;;;;;;5115796;28;20028;-66
2022/06/29 11:05:20;;;;;;;4.10;2.58;;;26.10;49.50;;;;;;5097675;28;20083;-66
2022/06/29 11:13:30;;;;;;;5.45;2.45;;;26.50;47.00;;;;;;5115866;28;20074;-66
2022/06/29 11:15:58;;;;;;;5.28;2.50;;;26.60;46.30;;;;;;5115475;28;20041;-66
2022/06/29 11:18:29;;;;;;;3.38;2.50;;;26.60;43.30;;;;;;5115407;28;20012;-66
2022/06/29 11:21:03;;;;;;;3.63;2.03;;;26.70;44.10;;;;;;5114229;28;20028;-66
2022/06/29 11:23:33;;;;;;;5.90;2.78;;;26.60;44.00;;;;;;5115416;28;20016;-66
2022/06/29 11:26:00;;;;;;;4.95;2.10;;;26.60;44.50;;;;;;5115363;28;20049;-66
2022/06/29 11:28:29;;;;;;;4.55;2.30;;;26.60;43.70;;;;;;5115269;28;20560;-66
2022/06/29 11:31:12;;;;;;;4.65;2.35;;;26.70;44.20;;;;;;5115297;28;20115;-66
2022/06/29 11:33:45;;;;;;;4.00;2.13;;;26.70;43.30;;;;;;5115265;28;20025;-66
2022/06/29 11:36:16;;;;;;;4.43;2.20;;;26.80;44.10;;;;;;5115338;28;20028;-66
2022/06/29 11:38:47;;;;;;;3.78;2.30;;;26.80;45.40;;;;;;5115164;28;20020;-66
2022/06/29 11:41:19;;;;;;;3.92;2.30;;;26.80;42.30;;;;;;5115024;28;20039;-66
2022/06/29 11:43:45;;;;;;;3.95;2.00;;;26.80;45.20;;;;;;5115100;28;20024;-66
2022/06/29 11:46:22;;;;;;;2.78;1.90;;;26.80;43.60;;;;;;5114798;28;20046;-66
2022/06/29 11:52:02;;;;;;;4.50;2.22;;;26.90;40.00;;;;;;5114979;28;20043;-66
2022/06/29 11:54:38;;;;;;;4.47;1.88;;;26.80;39.40;;;;;;5114830;28;20062;-66
2022/06/29 11:57:10;;;;;;;4.63;1.85;;;26.90;41.90;;;;;;5114860;28;20028;-66
2022/06/29 11:59:36;;;;;;;2.70;1.70;;;27.00;40.70;;;;;;5114767;28;20013;-67
2022/06/29 12:02:02;;;;;;;3.50;1.45;;;27.10;42.40;;;;;;5114759;28;20028;-67
2022/06/29 12:04:30;;;;;;;2.05;1.50;;;27.10;39.10;;;;;;5114591;28;20032;-66
2022/06/29 12:07:03;;;;;;;3.05;1.80;;;27.20;39.80;;;;;;5114513;28;20046;-66
2022/06/29 12:09:29;;;;;;;2.38;1.65;;;27.20;39.40;;;;;;5114509;28;20028;-67
2022/06/29 12:11:54;;;;;;;2.17;1.70;;;27.30;40.00;;;;;;5114484;28;20060;-67
2022/06/29 12:14:20;;;;;;;5.53;1.88;;;27.20;40.00;;;;;;5114411;28;20383;-67
2022/06/29 12:16:46;;;;;;;5.30;1.92;;;27.20;40.10;;;;;;5114385;28;20020;-66
2022/06/29 12:19:11;;;;;;;2.72;1.73;;;27.20;41.40;;;;;;5114302;28;20036;-66
2022/06/29 12:21:37;;;;;;;2.53;1.85;;;27.20;42.30;;;;;;5114281;28;20032;-67
2022/06/29 12:24:02;;;;;;;1.90;1.80;;;27.20;41.80;;;;;;5114220;28;20032;-67
2022/06/29 12:26:28;;;;;;;3.08;1.95;;;27.30;41.90;;;;;;5114217;28;20028;-66
2022/06/29 12:28:54;;;;;;;2.55;1.80;;;27.40;42.50;;;;;;5113915;28;20056;-67
2022/06/29 12:31:19;;;;;;;4.00;1.60;;;27.30;38.90;;;;;;5114064;28;20036;-67
2022/06/29 12:33:45;;;;;;;3.22;1.75;;;27.40;38.60;;;;;;5113826;28;20032;-67
2022/06/29 12:36:10;;;;;;;6.50;1.70;;;27.40;39.40;;;;;;5096053;28;20050;-67
2022/06/29 12:38:36;;;;;;;4.40;2.10;;;27.50;41.30;;;;;;5114100;28;20028;-67
2022/06/29 12:41:02;;;;;;;2.58;1.77;;;27.60;40.30;;;;;;5113953;28;20050;-67
2022/06/29 12:43:27;;;;;;;2.95;1.98;;;27.70;40.30;;;;;;5113906;28;20024;-66
2022/06/29 12:45:53;;;;;;;4.05;2.00;;;27.70;41.80;;;;;;5096014;28;20051;-67
2022/06/29 12:48:18;;;;;;;2.95;1.70;;;27.80;40.70;;;;;;5113826;28;20039;-66
2022/06/29 12:50:44;;;;;;;2.00;1.80;;;27.80;41.60;;;;;;5113783;28;20032;-67
2022/06/29 12:53:10;;;;;;;3.55;2.10;;;27.90;42.40;;;;;;5113701;28;20035;-67
2022/06/29 12:55:35;;;;;;;5.57;2.15;;;28.00;40.70;;;;;;5095919;28;20072;-66
2022/06/29 12:58:01;;;;;;;2.78;1.90;;;28.10;40.80;;;;;;5113683;28;20050;-66
2022/06/29 13:00:28;;;;;;;4.07;1.95;;;28.10;38.60;;;;;;5113670;28;20020;-67
2022/06/29 13:02:54;;;;;;;5.05;2.00;;;28.20;39.20;;;;;;5113598;28;20049;-66
2022/06/29 13:05:21;;;;;;;2.65;1.85;;;28.40;39.40;;;;;;5113594;28;20024;-67
2022/06/29 13:07:46;;;;;;;2.78;1.65;;;28.30;36.80;;;;;;5113464;28;20028;-68
2022/06/29 13:10:12;;;;;;;2.33;1.85;;;28.20;38.30;;;;;;5113534;28;20062;-67